sensor_id;sensor_type;location;lat;lon;timestamp;temperature;humidity
25550;DHT22;13444;50.562;7.262;2024-02-21T00:01:36;8.30;99.90
25550;DHT22;13444;50.562;7.262;2024-02-21T00:04:01;8.30;99.90
25550;DHT22;13444;50.562;7.262;2024-02-21T00:06:27;8.40;99.90
25550;DHT22;13444;50.562;7.262;2024-02-21T00:08:52;8.40;99.90
25550;DHT22;13444;50.562;7.262;2024-02-21T00:11:18;8.40;99.90
25550;DHT22;13444;50.562;7.262;2024-02-21T00:13:43;8.40;99.90
25550;DHT22;13444;50.562;7.262;2024-02-21T00:16:09;8.50;99.90
25550;DHT22;13444;50.562;7.262;2024-02-21T00:18:36;8.40;99.90
25550;DHT22;13444;50.562;7.262;2024-02-21T00:21:01;8.40;99.90
25550;DHT22;13444;50.562;7.262;2024-02-21T00:23:27;8.40;99.90
25550;DHT22;13444;50.562;7.262;2024-02-21T00:25:53;8.30;99.90
25550;DHT22;13444;50.562;7.262;2024-02-21T00:28:19;8.30;99.90
25550;DHT22;13444;50.562;7.262;2024-02-21T00:30:45;8.40;99.90
25550;DHT22;13444;50.562;7.262;2024-02-21T00:33:13;8.40;99.90
25550;DHT22;13444;50.562;7.262;2024-02-21T00:35:38;8.30;99.90
25550;DHT22;13444;50.562;7.262;2024-02-21T00:38:04;8.30;99.90
25550;DHT22;13444;50.562;7.262;2024-02-21T00:40:29;8.30;99.90
25550;DHT22;13444;50.562;7.262;2024-02-21T00:42:55;8.40;99.90
25550;DHT22;13444;50.562;7.262;2024-02-21T00:45:20;8.40;99.90
25550;DHT22;13444;50.562;7.262;2024-02-21T00:47:46;8.40;99.90
25550;DHT22;13444;50.562;7.262;2024-02-21T00:50:11;8.40;99.90
25550;DHT22;13444;50.562;7.262;2024-02-21T00:52:37;8.40;99.90
25550;DHT22;13444;50.562;7.262;2024-02-21T00:55:03;8.50;99.90
25550;DHT22;13444;50.562;7.262;2024-02-21T00:57:29;8.50;99.90
25550;DHT22;13444;50.562;7.262;2024-02-21T00:59:54;8.50;99.90
25550;DHT22;13444;50.562;7.262;2024-02-21T01:02:20;8.50;99.90
25550;DHT22;13444;50.562;7.262;2024-02-21T01:04:45;8.50;99.90
25550;DHT22;13444;50.562;7.262;2024-02-21T01:07:11;8.50;99.90
25550;DHT22;13444;50.562;7.262;2024-02-21T01:09:36;8.50;99.90
25550;DHT22;13444;50.562;7.262;2024-02-21T01:12:02;8.40;99.90
25550;DHT22;13444;50.562;7.262;2024-02-21T01:14:27;8.50;99.90
25550;DHT22;13444;50.562;7.262;2024-02-21T01:16:53;8.50;99.90
25550;DHT22;13444;50.562;7.262;2024-02-21T01:19:18;8.50;99.90
25550;DHT22;13444;50.562;7.262;2024-02-21T01:21:44;8.50;99.90
25550;DHT22;13444;50.562;7.262;2024-02-21T01:24:09;8.50;99.90
25550;DHT22;13444;50.562;7.262;2024-02-21T01:26:35;8.50;99.90
25550;DHT22;13444;50.562;7.262;2024-02-21T01:29:00;8.50;99.90
25550;DHT22;13444;50.562;7.262;2024-02-21T01:31:26;8.50;99.90
25550;DHT22;13444;50.562;7.262;2024-02-21T01:33:51;8.50;99.90
25550;DHT22;13444;50.562;7.262;2024-02-21T01:36:17;8.40;99.90
25550;DHT22;13444;50.562;7.262;2024-02-21T01:38:42;8.50;99.90
25550;DHT22;13444;50.562;7.262;2024-02-21T01:41:08;8.50;99.90
25550;DHT22;13444;50.562;7.262;2024-02-21T01:43:33;8.50;99.90
25550;DHT22;13444;50.562;7.262;2024-02-21T01:45:59;8.50;99.90
25550;DHT22;13444;50.562;7.262;2024-02-21T01:48:25;8.40;99.90
25550;DHT22;13444;50.562;7.262;2024-02-21T01:50:51;8.40;99.90
25550;DHT22;13444;50.562;7.262;2024-02-21T01:53:21;8.40;99.90
25550;DHT22;13444;50.562;7.262;2024-02-21T01:55:47;8.40;99.90
25550;DHT22;13444;50.562;7.262;2024-02-21T01:58:16;8.40;99.90
25550;DHT22;13444;50.562;7.262;2024-02-21T02:00:42;8.40;99.90
25550;DHT22;13444;50.562;7.262;2024-02-21T02:03:12;8.50;99.90
25550;DHT22;13444;50.562;7.262;2024-02-21T02:05:49;8.50;99.90
25550;DHT22;13444;50.562;7.262;2024-02-21T02:08:15;8.50;99.90
25550;DHT22;13444;50.562;7.262;2024-02-21T02:10:41;8.50;99.90
25550;DHT22;13444;50.562;7.262;2024-02-21T02:13:07;8.50;99.90
25550;DHT22;13444;50.562;7.262;2024-02-21T02:15:43;8.40;99.90
25550;DHT22;13444;50.562;7.262;2024-02-21T02:18:10;8.40;99.90
25550;DHT22;13444;50.562;7.262;2024-02-21T02:20:36;8.40;99.90
25550;DHT22;13444;50.562;7.262;2024-02-21T02:23:08;8.40;99.90
25550;DHT22;13444;50.562;7.262;2024-02-21T02:25:35;8.40;99.90
25550;DHT22;13444;50.562;7.262;2024-02-21T02:28:02;8.50;99.90
25550;DHT22;13444;50.562;7.262;2024-02-21T02:30:27;8.50;99.90
25550;DHT22;13444;50.562;7.262;2024-02-21T02:32:53;8.50;99.90
25550;DHT22;13444;50.562;7.262;2024-02-21T02:35:18;8.50;99.90
25550;DHT22;13444;50.562;7.262;2024-02-21T02:37:48;8.50;99.90
25550;DHT22;13444;50.562;7.262;2024-02-21T02:40:14;8.50;99.90
25550;DHT22;13444;50.562;7.262;2024-02-21T02:42:40;8.50;99.90
25550;DHT22;13444;50.562;7.262;2024-02-21T02:45:06;8.50;99.90
25550;DHT22;13444;50.562;7.262;2024-02-21T02:48:36;8.50;99.90
25550;DHT22;13444;50.562;7.262;2024-02-21T02:51:03;8.50;99.90
25550;DHT22;13444;50.562;7.262;2024-02-21T02:53:29;8.50;99.90
25550;DHT22;13444;50.562;7.262;2024-02-21T02:55:54;8.50;99.90
25550;DHT22;13444;50.562;7.262;2024-02-21T02:58:20;8.50;99.90
25550;DHT22;13444;50.562;7.262;2024-02-21T03:00:46;8.50;99.90
25550;DHT22;13444;50.562;7.262;2024-02-21T03:03:11;8.50;99.90
25550;DHT22;13444;50.562;7.262;2024-02-21T03:05:37;8.40;99.90
25550;DHT22;13444;50.562;7.262;2024-02-21T03:08:02;8.40;99.90
25550;DHT22;13444;50.562;7.262;2024-02-21T03:10:32;8.50;99.90
25550;DHT22;13444;50.562;7.262;2024-02-21T03:12:58;8.40;99.90
25550;DHT22;13444;50.562;7.262;2024-02-21T03:15:24;8.40;99.90
25550;DHT22;13444;50.562;7.262;2024-02-21T03:17:49;8.40;99.90
25550;DHT22;13444;50.562;7.262;2024-02-21T03:20:15;8.40;99.90
25550;DHT22;13444;50.562;7.262;2024-02-21T03:22:41;8.40;99.90
25550;DHT22;13444;50.562;7.262;2024-02-21T03:25:07;8.40;99.90
25550;DHT22;13444;50.562;7.262;2024-02-21T03:27:33;8.40;99.90
25550;DHT22;13444;50.562;7.262;2024-02-21T03:29:59;8.40;99.90
25550;DHT22;13444;50.562;7.262;2024-02-21T03:32:24;8.30;99.90
25550;DHT22;13444;50.562;7.262;2024-02-21T03:34:50;8.40;99.90
25550;DHT22;13444;50.562;7.262;2024-02-21T03:37:15;8.30;99.90
25550;DHT22;13444;50.562;7.262;2024-02-21T03:39:41;8.30;99.90
25550;DHT22;13444;50.562;7.262;2024-02-21T03:42:07;8.30;99.90
25550;DHT22;13444;50.562;7.262;2024-02-21T03:44:33;8.30;99.90
25550;DHT22;13444;50.562;7.262;2024-02-21T03:47:01;8.30;99.90
25550;DHT22;13444;50.562;7.262;2024-02-21T03:49:27;8.30;99.90
25550;DHT22;13444;50.562;7.262;2024-02-21T03:51:52;8.30;99.90
25550;DHT22;13444;50.562;7.262;2024-02-21T03:54:18;8.30;99.90
25550;DHT22;13444;50.562;7.262;2024-02-21T03:56:44;8.30;99.90
25550;DHT22;13444;50.562;7.262;2024-02-21T03:59:09;8.30;99.90
25550;DHT22;13444;50.562;7.262;2024-02-21T04:01:35;8.30;99.90
25550;DHT22;13444;50.562;7.262;2024-02-21T04:04:01;8.30;99.90
25550;DHT22;13444;50.562;7.262;2024-02-21T04:06:27;8.20;99.90
25550;DHT22;13444;50.562;7.262;2024-02-21T04:08:53;8.20;99.90
25550;DHT22;13444;50.562;7.262;2024-02-21T04:11:18;8.20;99.90
25550;DHT22;13444;50.562;7.262;2024-02-21T04:13:44;8.10;99.90
25550;DHT22;13444;50.562;7.262;2024-02-21T04:16:10;8.10;99.90
25550;DHT22;13444;50.562;7.262;2024-02-21T04:18:36;8.10;99.90
25550;DHT22;13444;50.562;7.262;2024-02-21T04:21:01;8.10;99.90
25550;DHT22;13444;50.562;7.262;2024-02-21T04:23:27;8.10;99.90
25550;DHT22;13444;50.562;7.262;2024-02-21T04:25:52;8.10;99.90
25550;DHT22;13444;50.562;7.262;2024-02-21T04:28:18;8.10;99.90
25550;DHT22;13444;50.562;7.262;2024-02-21T04:30:43;8.10;99.90
25550;DHT22;13444;50.562;7.262;2024-02-21T04:33:09;8.10;99.90
25550;DHT22;13444;50.562;7.262;2024-02-21T04:35:36;8.10;99.90
25550;DHT22;13444;50.562;7.262;2024-02-21T04:38:02;8.20;99.90
25550;DHT22;13444;50.562;7.262;2024-02-21T04:40:27;8.20;99.90
25550;DHT22;13444;50.562;7.262;2024-02-21T04:42:53;8.20;99.90
25550;DHT22;13444;50.562;7.262;2024-02-21T04:45:18;8.20;99.90
25550;DHT22;13444;50.562;7.262;2024-02-21T04:47:44;8.20;99.90
25550;DHT22;13444;50.562;7.262;2024-02-21T04:50:09;8.20;99.90
25550;DHT22;13444;50.562;7.262;2024-02-21T04:52:35;8.20;99.90
25550;DHT22;13444;50.562;7.262;2024-02-21T04:55:00;8.20;99.90
25550;DHT22;13444;50.562;7.262;2024-02-21T04:57:26;8.20;99.90
25550;DHT22;13444;50.562;7.262;2024-02-21T04:59:51;8.20;99.90
25550;DHT22;13444;50.562;7.262;2024-02-21T05:02:17;8.20;99.90
25550;DHT22;13444;50.562;7.262;2024-02-21T05:04:43;8.20;99.90
25550;DHT22;13444;50.562;7.262;2024-02-21T05:07:09;8.20;99.90
25550;DHT22;13444;50.562;7.262;2024-02-21T05:09:36;8.20;99.90
25550;DHT22;13444;50.562;7.262;2024-02-21T05:12:01;8.20;99.90
25550;DHT22;13444;50.562;7.262;2024-02-21T05:14:27;8.20;99.90
25550;DHT22;13444;50.562;7.262;2024-02-21T05:16:53;8.20;99.90
25550;DHT22;13444;50.562;7.262;2024-02-21T05:19:18;8.20;99.90
25550;DHT22;13444;50.562;7.262;2024-02-21T05:21:44;8.20;99.90
25550;DHT22;13444;50.562;7.262;2024-02-21T05:24:10;8.20;99.90
25550;DHT22;13444;50.562;7.262;2024-02-21T05:26:35;8.20;99.90
25550;DHT22;13444;50.562;7.262;2024-02-21T05:29:01;8.30;99.90
25550;DHT22;13444;50.562;7.262;2024-02-21T05:34:20;8.30;99.90
25550;DHT22;13444;50.562;7.262;2024-02-21T05:36:46;8.30;99.90
25550;DHT22;13444;50.562;7.262;2024-02-21T05:39:13;8.30;99.90
25550;DHT22;13444;50.562;7.262;2024-02-21T05:41:38;8.30;99.90
25550;DHT22;13444;50.562;7.262;2024-02-21T05:44:04;8.40;99.90
25550;DHT22;13444;50.562;7.262;2024-02-21T05:46:29;8.30;99.90
25550;DHT22;13444;50.562;7.262;2024-02-21T05:48:55;8.30;99.90
25550;DHT22;13444;50.562;7.262;2024-02-21T05:51:20;8.30;99.90
25550;DHT22;13444;50.562;7.262;2024-02-21T05:53:46;8.30;99.90
25550;DHT22;13444;50.562;7.262;2024-02-21T05:56:12;8.30;99.90
25550;DHT22;13444;50.562;7.262;2024-02-21T05:58:38;8.30;99.90
25550;DHT22;13444;50.562;7.262;2024-02-21T06:01:04;8.30;99.90
25550;DHT22;13444;50.562;7.262;2024-02-21T06:03:32;8.40;99.90
25550;DHT22;13444;50.562;7.262;2024-02-21T06:06:01;8.40;99.90
25550;DHT22;13444;50.562;7.262;2024-02-21T06:08:27;8.30;99.90
25550;DHT22;13444;50.562;7.262;2024-02-21T06:10:52;8.30;99.90
25550;DHT22;13444;50.562;7.262;2024-02-21T06:13:21;8.30;99.90
25550;DHT22;13444;50.562;7.262;2024-02-21T06:15:47;8.30;99.90
25550;DHT22;13444;50.562;7.262;2024-02-21T06:18:13;8.30;99.90
25550;DHT22;13444;50.562;7.262;2024-02-21T06:20:38;8.30;99.90
25550;DHT22;13444;50.562;7.262;2024-02-21T06:23:06;8.30;99.90
25550;DHT22;13444;50.562;7.262;2024-02-21T06:25:32;8.30;99.90
25550;DHT22;13444;50.562;7.262;2024-02-21T06:27:57;8.30;99.90
25550;DHT22;13444;50.562;7.262;2024-02-21T06:30:23;8.30;99.90
25550;DHT22;13444;50.562;7.262;2024-02-21T06:32:48;8.30;99.90
25550;DHT22;13444;50.562;7.262;2024-02-21T06:35:14;8.30;99.90
25550;DHT22;13444;50.562;7.262;2024-02-21T06:37:39;8.30;99.90
25550;DHT22;13444;50.562;7.262;2024-02-21T06:40:05;8.30;99.90
25550;DHT22;13444;50.562;7.262;2024-02-21T06:42:31;8.30;99.90
25550;DHT22;13444;50.562;7.262;2024-02-21T06:44:56;8.40;99.90
25550;DHT22;13444;50.562;7.262;2024-02-21T06:47:22;8.30;99.90
25550;DHT22;13444;50.562;7.262;2024-02-21T06:49:51;8.30;99.90
25550;DHT22;13444;50.562;7.262;2024-02-21T06:52:20;8.30;99.90
25550;DHT22;13444;50.562;7.262;2024-02-21T06:54:46;8.40;99.90
25550;DHT22;13444;50.562;7.262;2024-02-21T06:57:12;8.30;99.90
25550;DHT22;13444;50.562;7.262;2024-02-21T06:59:39;8.30;99.90
25550;DHT22;13444;50.562;7.262;2024-02-21T07:02:04;8.30;99.90
25550;DHT22;13444;50.562;7.262;2024-02-21T07:04:30;8.30;99.90
25550;DHT22;13444;50.562;7.262;2024-02-21T07:06:56;8.30;99.90
25550;DHT22;13444;50.562;7.262;2024-02-21T07:09:21;8.30;99.90
25550;DHT22;13444;50.562;7.262;2024-02-21T07:11:47;8.40;99.90
25550;DHT22;13444;50.562;7.262;2024-02-21T07:14:14;8.40;99.90
25550;DHT22;13444;50.562;7.262;2024-02-21T07:16:40;8.40;99.90
25550;DHT22;13444;50.562;7.262;2024-02-21T07:19:06;8.40;99.90
25550;DHT22;13444;50.562;7.262;2024-02-21T07:21:32;8.40;99.90
25550;DHT22;13444;50.562;7.262;2024-02-21T07:23:57;8.40;99.90
25550;DHT22;13444;50.562;7.262;2024-02-21T07:26:23;8.40;99.90
25550;DHT22;13444;50.562;7.262;2024-02-21T07:28:48;8.40;99.90
25550;DHT22;13444;50.562;7.262;2024-02-21T07:31:14;8.40;99.90
25550;DHT22;13444;50.562;7.262;2024-02-21T07:33:39;8.50;99.90
25550;DHT22;13444;50.562;7.262;2024-02-21T07:36:10;8.50;99.90
25550;DHT22;13444;50.562;7.262;2024-02-21T07:38:36;8.50;99.90
25550;DHT22;13444;50.562;7.262;2024-02-21T07:41:02;8.60;99.90
25550;DHT22;13444;50.562;7.262;2024-02-21T07:43:28;8.60;99.90
25550;DHT22;13444;50.562;7.262;2024-02-21T07:45:53;8.60;99.90
25550;DHT22;13444;50.562;7.262;2024-02-21T07:48:19;8.70;99.90
25550;DHT22;13444;50.562;7.262;2024-02-21T07:50:44;8.70;99.90
25550;DHT22;13444;50.562;7.262;2024-02-21T07:53:10;8.70;99.90
25550;DHT22;13444;50.562;7.262;2024-02-21T07:55:35;8.80;99.90
25550;DHT22;13444;50.562;7.262;2024-02-21T07:58:01;8.80;99.90
25550;DHT22;13444;50.562;7.262;2024-02-21T08:00:27;8.80;99.90
25550;DHT22;13444;50.562;7.262;2024-02-21T08:02:52;8.80;99.90
25550;DHT22;13444;50.562;7.262;2024-02-21T08:05:18;8.80;99.90
25550;DHT22;13444;50.562;7.262;2024-02-21T08:07:43;8.80;99.90
25550;DHT22;13444;50.562;7.262;2024-02-21T08:10:09;8.90;99.90
25550;DHT22;13444;50.562;7.262;2024-02-21T08:12:35;8.90;99.90
25550;DHT22;13444;50.562;7.262;2024-02-21T08:15:01;8.90;99.90
25550;DHT22;13444;50.562;7.262;2024-02-21T08:17:28;8.90;99.90
25550;DHT22;13444;50.562;7.262;2024-02-21T08:19:54;9.00;99.90
25550;DHT22;13444;50.562;7.262;2024-02-21T08:22:20;9.00;99.90
25550;DHT22;13444;50.562;7.262;2024-02-21T08:24:45;9.10;99.90
25550;DHT22;13444;50.562;7.262;2024-02-21T08:27:11;9.20;99.90
25550;DHT22;13444;50.562;7.262;2024-02-21T08:29:37;9.30;99.90
25550;DHT22;13444;50.562;7.262;2024-02-21T08:32:02;9.30;99.90
25550;DHT22;13444;50.562;7.262;2024-02-21T08:34:28;9.30;99.90
25550;DHT22;13444;50.562;7.262;2024-02-21T08:36:55;9.30;99.90
25550;DHT22;13444;50.562;7.262;2024-02-21T08:39:21;9.30;99.90
25550;DHT22;13444;50.562;7.262;2024-02-21T08:41:46;9.30;92.90
25550;DHT22;13444;50.562;7.262;2024-02-21T08:44:12;9.40;79.70
25550;DHT22;13444;50.562;7.262;2024-02-21T08:46:37;9.40;85.60
25550;DHT22;13444;50.562;7.262;2024-02-21T08:49:06;9.50;82.80
25550;DHT22;13444;50.562;7.262;2024-02-21T08:51:31;9.60;72.10
25550;DHT22;13444;50.562;7.262;2024-02-21T08:53:57;9.70;63.00
25550;DHT22;13444;50.562;7.262;2024-02-21T08:56:24;9.70;69.70
25550;DHT22;13444;50.562;7.262;2024-02-21T08:58:49;9.80;54.70
25550;DHT22;13444;50.562;7.262;2024-02-21T09:01:15;9.90;55.70
25550;DHT22;13444;50.562;7.262;2024-02-21T09:03:41;9.90;49.50
25550;DHT22;13444;50.562;7.262;2024-02-21T09:06:07;9.90;39.00
25550;DHT22;13444;50.562;7.262;2024-02-21T09:08:33;9.90;46.70
25550;DHT22;13444;50.562;7.262;2024-02-21T09:11:02;10.00;53.80
25550;DHT22;13444;50.562;7.262;2024-02-21T09:13:28;10.10;43.10
25550;DHT22;13444;50.562;7.262;2024-02-21T09:15:54;10.30;45.90
25550;DHT22;13444;50.562;7.262;2024-02-21T09:18:19;10.40;44.50
25550;DHT22;13444;50.562;7.262;2024-02-21T09:20:45;10.40;21.30
25550;DHT22;13444;50.562;7.262;2024-02-21T09:23:11;10.50;25.60
25550;DHT22;13444;50.562;7.262;2024-02-21T09:25:37;10.40;21.60
25550;DHT22;13444;50.562;7.262;2024-02-21T09:28:03;10.50;7.10
25550;DHT22;13444;50.562;7.262;2024-02-21T09:30:29;10.50;14.60
25550;DHT22;13444;50.562;7.262;2024-02-21T09:32:54;10.60;15.70
25550;DHT22;13444;50.562;7.262;2024-02-21T09:35:20;10.60;12.30
25550;DHT22;13444;50.562;7.262;2024-02-21T09:37:48;10.70;8.50
25550;DHT22;13444;50.562;7.262;2024-02-21T09:40:15;10.80;20.60
25550;DHT22;13444;50.562;7.262;2024-02-21T09:42:42;10.80;14.60
25550;DHT22;13444;50.562;7.262;2024-02-21T09:45:21;10.80;1.00
25550;DHT22;13444;50.562;7.262;2024-02-21T09:50:37;10.60;1.50
25550;DHT22;13444;50.562;7.262;2024-02-21T09:53:04;10.60;1.00
25550;DHT22;13444;50.562;7.262;2024-02-21T09:55:33;10.60;6.70
25550;DHT22;13444;50.562;7.262;2024-02-21T09:58:01;10.60;11.50
25550;DHT22;13444;50.562;7.262;2024-02-21T10:00:27;10.60;9.90
25550;DHT22;13444;50.562;7.262;2024-02-21T10:02:53;10.70;8.90
25550;DHT22;13444;50.562;7.262;2024-02-21T10:05:19;10.70;1.00
25550;DHT22;13444;50.562;7.262;2024-02-21T10:07:45;10.70;1.00
25550;DHT22;13444;50.562;7.262;2024-02-21T10:10:10;10.80;1.00
25550;DHT22;13444;50.562;7.262;2024-02-21T10:12:36;10.80;1.00
25550;DHT22;13444;50.562;7.262;2024-02-21T10:15:06;10.90;1.00
25550;DHT22;13444;50.562;7.262;2024-02-21T10:17:35;10.90;1.00
25550;DHT22;13444;50.562;7.262;2024-02-21T10:20:11;10.90;1.00
25550;DHT22;13444;50.562;7.262;2024-02-21T10:22:38;10.90;1.00
25550;DHT22;13444;50.562;7.262;2024-02-21T10:25:12;11.00;1.00
25550;DHT22;13444;50.562;7.262;2024-02-21T10:27:39;11.00;1.00
25550;DHT22;13444;50.562;7.262;2024-02-21T10:30:12;11.00;1.00
25550;DHT22;13444;50.562;7.262;2024-02-21T10:32:52;11.00;1.00
25550;DHT22;13444;50.562;7.262;2024-02-21T10:35:30;10.90;1.00
25550;DHT22;13444;50.562;7.262;2024-02-21T10:37:57;10.90;1.00
25550;DHT22;13444;50.562;7.262;2024-02-21T10:40:28;10.90;1.00
25550;DHT22;13444;50.562;7.262;2024-02-21T10:42:57;10.90;1.00
25550;DHT22;13444;50.562;7.262;2024-02-21T10:47:56;10.90;1.00
25550;DHT22;13444;50.562;7.262;2024-02-21T10:50:25;10.90;1.00
25550;DHT22;13444;50.562;7.262;2024-02-21T10:52:59;11.00;1.00
25550;DHT22;13444;50.562;7.262;2024-02-21T10:55:32;10.90;1.00
25550;DHT22;13444;50.562;7.262;2024-02-21T10:57:59;10.90;1.00
25550;DHT22;13444;50.562;7.262;2024-02-21T11:00:26;10.90;1.00
25550;DHT22;13444;50.562;7.262;2024-02-21T11:02:56;10.90;1.00
25550;DHT22;13444;50.562;7.262;2024-02-21T11:05:24;11.00;1.00
25550;DHT22;13444;50.562;7.262;2024-02-21T11:07:50;11.00;1.00
25550;DHT22;13444;50.562;7.262;2024-02-21T11:10:26;11.00;1.00
25550;DHT22;13444;50.562;7.262;2024-02-21T11:13:11;10.90;1.00
25550;DHT22;13444;50.562;7.262;2024-02-21T11:15:36;10.90;1.00
25550;DHT22;13444;50.562;7.262;2024-02-21T11:18:02;11.00;1.00
25550;DHT22;13444;50.562;7.262;2024-02-21T11:20:37;11.00;1.00
25550;DHT22;13444;50.562;7.262;2024-02-21T11:23:03;11.10;1.00
25550;DHT22;13444;50.562;7.262;2024-02-21T11:25:29;11.20;1.00
25550;DHT22;13444;50.562;7.262;2024-02-21T11:28:03;11.20;1.00
25550;DHT22;13444;50.562;7.262;2024-02-21T11:30:36;11.30;1.00
25550;DHT22;13444;50.562;7.262;2024-02-21T11:33:05;11.30;1.00
25550;DHT22;13444;50.562;7.262;2024-02-21T11:35:35;11.30;1.00
25550;DHT22;13444;50.562;7.262;2024-02-21T11:38:10;11.40;1.00
25550;DHT22;13444;50.562;7.262;2024-02-21T11:40:38;11.40;1.00
25550;DHT22;13444;50.562;7.262;2024-02-21T11:43:05;11.40;1.00
25550;DHT22;13444;50.562;7.262;2024-02-21T11:45:31;11.30;1.00
25550;DHT22;13444;50.562;7.262;2024-02-21T11:47:58;11.30;1.00
25550;DHT22;13444;50.562;7.262;2024-02-21T11:50:26;11.30;1.00
25550;DHT22;13444;50.562;7.262;2024-02-21T11:52:54;11.30;1.00
25550;DHT22;13444;50.562;7.262;2024-02-21T11:55:21;11.30;1.00
25550;DHT22;13444;50.562;7.262;2024-02-21T11:57:48;11.20;1.00
25550;DHT22;13444;50.562;7.262;2024-02-21T12:00:15;11.20;1.00
25550;DHT22;13444;50.562;7.262;2024-02-21T12:02:42;11.20;1.00
25550;DHT22;13444;50.562;7.262;2024-02-21T12:05:08;11.20;1.00
25550;DHT22;13444;50.562;7.262;2024-02-21T12:07:35;11.30;1.00
25550;DHT22;13444;50.562;7.262;2024-02-21T12:10:01;11.20;1.00
25550;DHT22;13444;50.562;7.262;2024-02-21T12:12:28;11.20;1.00
25550;DHT22;13444;50.562;7.262;2024-02-21T12:14:57;11.30;1.00
25550;DHT22;13444;50.562;7.262;2024-02-21T12:17:25;11.30;1.00
25550;DHT22;13444;50.562;7.262;2024-02-21T12:19:51;11.20;1.00
25550;DHT22;13444;50.562;7.262;2024-02-21T12:22:18;11.20;1.00
25550;DHT22;13444;50.562;7.262;2024-02-21T12:24:44;11.20;1.00
25550;DHT22;13444;50.562;7.262;2024-02-21T12:27:13;11.20;1.00
25550;DHT22;13444;50.562;7.262;2024-02-21T12:29:39;11.20;1.00
25550;DHT22;13444;50.562;7.262;2024-02-21T12:32:05;11.10;1.00
25550;DHT22;13444;50.562;7.262;2024-02-21T12:34:30;11.10;1.00
25550;DHT22;13444;50.562;7.262;2024-02-21T12:36:59;11.10;1.00
25550;DHT22;13444;50.562;7.262;2024-02-21T12:39:25;11.00;1.00
25550;DHT22;13444;50.562;7.262;2024-02-21T12:41:53;11.00;1.00
25550;DHT22;13444;50.562;7.262;2024-02-21T12:44:19;11.00;1.00
25550;DHT22;13444;50.562;7.262;2024-02-21T12:46:45;10.90;1.00
25550;DHT22;13444;50.562;7.262;2024-02-21T12:49:10;11.00;1.00
25550;DHT22;13444;50.562;7.262;2024-02-21T12:51:36;11.00;1.00
25550;DHT22;13444;50.562;7.262;2024-02-21T12:54:02;10.90;1.00
25550;DHT22;13444;50.562;7.262;2024-02-21T12:56:30;10.90;1.00
25550;DHT22;13444;50.562;7.262;2024-02-21T12:58:56;11.00;1.00
25550;DHT22;13444;50.562;7.262;2024-02-21T13:01:22;11.00;1.00
25550;DHT22;13444;50.562;7.262;2024-02-21T13:03:48;11.00;1.00
25550;DHT22;13444;50.562;7.262;2024-02-21T13:06:13;11.00;1.00
25550;DHT22;13444;50.562;7.262;2024-02-21T13:08:39;11.00;1.00
25550;DHT22;13444;50.562;7.262;2024-02-21T13:11:05;11.00;1.00
25550;DHT22;13444;50.562;7.262;2024-02-21T13:13:31;11.00;1.00
25550;DHT22;13444;50.562;7.262;2024-02-21T13:15:57;11.10;1.00
25550;DHT22;13444;50.562;7.262;2024-02-21T13:18:23;11.10;1.00
25550;DHT22;13444;50.562;7.262;2024-02-21T13:20:49;11.10;1.00
25550;DHT22;13444;50.562;7.262;2024-02-21T13:23:14;11.20;1.00
25550;DHT22;13444;50.562;7.262;2024-02-21T13:25:40;11.20;1.00
25550;DHT22;13444;50.562;7.262;2024-02-21T13:28:05;11.20;1.00
25550;DHT22;13444;50.562;7.262;2024-02-21T13:30:32;11.20;1.00
25550;DHT22;13444;50.562;7.262;2024-02-21T13:32:57;11.30;1.00
25550;DHT22;13444;50.562;7.262;2024-02-21T13:35:23;11.30;1.00
25550;DHT22;13444;50.562;7.262;2024-02-21T13:37:49;11.30;1.00
25550;DHT22;13444;50.562;7.262;2024-02-21T13:40:15;11.30;1.00
25550;DHT22;13444;50.562;7.262;2024-02-21T13:42:41;11.30;1.00
25550;DHT22;13444;50.562;7.262;2024-02-21T13:45:07;11.30;1.00
25550;DHT22;13444;50.562;7.262;2024-02-21T13:47:33;11.30;1.00
25550;DHT22;13444;50.562;7.262;2024-02-21T13:49:59;11.30;1.00
25550;DHT22;13444;50.562;7.262;2024-02-21T13:52:25;11.30;1.00
25550;DHT22;13444;50.562;7.262;2024-02-21T13:54:53;11.20;1.00
25550;DHT22;13444;50.562;7.262;2024-02-21T13:57:19;11.30;1.00
25550;DHT22;13444;50.562;7.262;2024-02-21T13:59:44;11.20;1.00
25550;DHT22;13444;50.562;7.262;2024-02-21T14:02:10;11.20;1.00
25550;DHT22;13444;50.562;7.262;2024-02-21T14:04:35;11.20;6.10
25550;DHT22;13444;50.562;7.262;2024-02-21T14:07:01;11.30;1.00
25550;DHT22;13444;50.562;7.262;2024-02-21T14:09:27;11.30;1.00
25550;DHT22;13444;50.562;7.262;2024-02-21T14:11:55;11.30;1.00
25550;DHT22;13444;50.562;7.262;2024-02-21T14:14:21;11.30;1.00
25550;DHT22;13444;50.562;7.262;2024-02-21T14:16:47;11.20;1.00
25550;DHT22;13444;50.562;7.262;2024-02-21T14:19:14;11.20;1.00
25550;DHT22;13444;50.562;7.262;2024-02-21T14:21:39;11.20;1.00
25550;DHT22;13444;50.562;7.262;2024-02-21T14:24:05;11.20;1.00
25550;DHT22;13444;50.562;7.262;2024-02-21T14:26:31;11.20;1.00
25550;DHT22;13444;50.562;7.262;2024-02-21T14:28:57;11.20;1.00
25550;DHT22;13444;50.562;7.262;2024-02-21T14:31:23;11.20;1.00
25550;DHT22;13444;50.562;7.262;2024-02-21T14:33:48;11.20;2.50
25550;DHT22;13444;50.562;7.262;2024-02-21T14:36:15;11.20;1.00
25550;DHT22;13444;50.562;7.262;2024-02-21T14:38:41;11.20;1.00
25550;DHT22;13444;50.562;7.262;2024-02-21T14:41:07;11.20;1.00
25550;DHT22;13444;50.562;7.262;2024-02-21T14:43:32;11.10;1.00
25550;DHT22;13444;50.562;7.262;2024-02-21T14:46:00;11.20;1.00
25550;DHT22;13444;50.562;7.262;2024-02-21T14:48:27;11.20;1.00
25550;DHT22;13444;50.562;7.262;2024-02-21T14:50:54;11.20;1.00
25550;DHT22;13444;50.562;7.262;2024-02-21T14:53:19;11.20;1.00
25550;DHT22;13444;50.562;7.262;2024-02-21T14:55:45;11.20;1.00
25550;DHT22;13444;50.562;7.262;2024-02-21T14:58:10;11.20;1.00
25550;DHT22;13444;50.562;7.262;2024-02-21T15:00:36;11.20;1.00
25550;DHT22;13444;50.562;7.262;2024-02-21T15:03:02;11.20;1.00
25550;DHT22;13444;50.562;7.262;2024-02-21T15:05:28;11.20;1.00
25550;DHT22;13444;50.562;7.262;2024-02-21T15:07:56;11.20;1.00
25550;DHT22;13444;50.562;7.262;2024-02-21T15:10:23;11.20;1.00
25550;DHT22;13444;50.562;7.262;2024-02-21T15:12:48;11.20;1.00
25550;DHT22;13444;50.562;7.262;2024-02-21T15:15:14;11.20;1.00
25550;DHT22;13444;50.562;7.262;2024-02-21T15:17:40;11.20;1.00
25550;DHT22;13444;50.562;7.262;2024-02-21T15:20:06;11.10;1.00
25550;DHT22;13444;50.562;7.262;2024-02-21T15:22:35;11.10;1.00
25550;DHT22;13444;50.562;7.262;2024-02-21T15:25:01;11.10;1.00
25550;DHT22;13444;50.562;7.262;2024-02-21T15:27:27;11.10;1.00
25550;DHT22;13444;50.562;7.262;2024-02-21T15:29:53;11.10;1.00
25550;DHT22;13444;50.562;7.262;2024-02-21T15:32:20;11.10;1.00
25550;DHT22;13444;50.562;7.262;2024-02-21T15:34:45;11.00;1.00
25550;DHT22;13444;50.562;7.262;2024-02-21T15:37:11;11.00;1.00
25550;DHT22;13444;50.562;7.262;2024-02-21T15:39:41;11.00;1.00
25550;DHT22;13444;50.562;7.262;2024-02-21T15:42:06;11.00;1.00
25550;DHT22;13444;50.562;7.262;2024-02-21T15:44:32;11.00;1.00
25550;DHT22;13444;50.562;7.262;2024-02-21T15:46:57;11.00;1.00
25550;DHT22;13444;50.562;7.262;2024-02-21T15:49:24;11.00;1.00